Time;durP1;ratioP1;P1;durP2;ratioP2;P2;SDS_P1;SDS_P2;PMS_P1;PMS_P2;Temp;Humidity;BMP_temperature;BMP_pressure;BME280_temperature;BME280_humidity;BME280_pressure;Samples;Min_cycle;Max_cycle;Signal;HPM_P1;HPM_P2
2021/06/09 00:01:23;;;;;;;5.97;4.37;;;;;;;24.72;56.29;101040.87;143726;607;46008;-87
2021/06/09 00:03:51;;;;;;;8.85;5.50;;;;;;;24.73;56.76;101045.25;143724;575;46008;-88
2021/06/09 00:06:18;;;;;;;10.65;5.43;;;;;;;24.75;56.92;101036.72;143727;597;45924;-88
2021/06/09 00:08:45;;;;;;;6.72;5.15;;;;;;;24.72;57.03;101037.28;143728;594;47012;-87
2021/06/09 00:11:12;;;;;;;7.90;5.10;;;;;;;24.67;56.19;101038.13;143725;582;46023;-89
2021/06/09 00:13:40;;;;;;;7.55;5.18;;;;;;;24.66;55.91;101033.72;143725;662;47004;-89
2021/06/09 00:16:11;;;;;;;5.65;5.03;;;;;;;24.65;55.74;101023.84;143726;641;46002;-88
2021/06/09 00:18:37;;;;;;;8.15;4.93;;;;;;;24.65;55.11;101032.09;143717;625;50000;-87
2021/06/09 00:21:04;;;;;;;5.55;4.37;;;;;;;24.65;55.08;101032.91;143726;614;46016;-86
2021/06/09 00:23:32;;;;;;;7.35;4.78;;;;;;;24.63;55.44;101023.31;143725;569;47004;-88
2021/06/09 00:26:02;;;;;;;6.40;5.45;;;;;;;24.61;55.21;101037.34;143728;633;45922;-88
2021/06/09 00:28:31;;;;;;;7.90;5.37;;;;;;;24.58;55.33;101028.84;143727;607;47010;-88
2021/06/09 00:30:59;;;;;;;8.77;5.15;;;;;;;24.56;55.75;101036.56;143721;652;49005;-87
2021/06/09 00:33:26;;;;;;;5.68;4.70;;;;;;;24.54;55.94;101036.81;143726;582;47002;-87
2021/06/09 00:35:58;;;;;;;7.78;4.97;;;;;;;24.50;56.25;101041.28;143725;672;47010;-88
2021/06/09 00:38:26;;;;;;;6.90;5.35;;;;;;;24.47;56.43;101045.38;143729;588;46007;-87
2021/06/09 00:40:54;;;;;;;6.12;5.18;;;;;;;24.49;55.78;101043.19;143728;582;46028;-88
2021/06/09 00:43:23;;;;;;;6.20;5.43;;;;;;;24.52;55.71;101036.31;143726;583;46004;-87
2021/06/09 00:46:10;;;;;;;9.38;5.80;;;;;;;24.52;55.87;101039.06;143726;598;46010;-88
2021/06/09 00:48:40;;;;;;;6.28;5.05;;;;;;;24.48;56.09;101041.53;143727;588;47004;-88
2021/06/09 00:51:12;;;;;;;7.97;5.20;;;;;;;24.48;56.05;101044.28;143722;617;50010;-87
2021/06/09 00:53:46;;;;;;;9.45;4.82;;;;;;;24.49;55.42;101034.13;143726;642;47004;-89
2021/06/09 00:56:14;;;;;;;8.93;4.90;;;;;;;24.48;54.99;101036.03;143726;610;46004;-87
2021/06/09 00:58:43;;;;;;;7.87;4.85;;;;;;;24.48;54.93;101029.75;143723;579;48992;-87
2021/06/09 01:01:12;;;;;;;10.20;4.93;;;;;;;24.48;54.69;101033.31;143729;592;45920;-87
2021/06/09 01:03:39;;;;;;;6.10;5.12;;;;;;;24.48;55.12;101024.25;143726;633;47004;-88
2021/06/09 01:06:07;;;;;;;9.95;5.18;;;;;;;24.46;55.50;101027.28;143728;598;45922;-88
2021/06/09 01:08:36;;;;;;;7.75;4.50;;;;;;;24.45;55.62;101024.81;143724;581;48004;-87
2021/06/09 01:11:04;;;;;;;5.20;4.43;;;;;;;24.45;55.50;101024.81;143723;609;49002;-89
2021/06/09 01:13:31;;;;;;;6.40;5.07;;;;;;;24.46;55.63;101021.78;143724;578;47011;-89
2021/06/09 01:16:00;;;;;;;7.60;5.35;;;;;;;24.45;55.83;101024.81;143725;574;46006;-87
2021/06/09 01:18:28;;;;;;;10.13;5.18;;;;;;;24.44;55.95;101015.78;143727;606;47002;-87
2021/06/09 01:20:56;;;;;;;9.10;4.85;;;;;;;24.44;55.98;101020.44;143725;608;48012;-89
2021/06/09 01:23:23;;;;;;;5.90;4.65;;;;;;;24.45;56.28;101013.84;143725;587;48005;-86
2021/06/09 01:25:50;;;;;;;13.77;6.22;;;;;;;24.43;56.42;101011.41;143725;568;45921;-87
2021/06/09 01:28:18;;;;;;;9.60;5.97;;;;;;;24.45;56.56;101020.13;143730;734;46002;-88
2021/06/09 01:30:46;;;;;;;7.30;5.40;;;;;;;24.45;56.78;101016.59;143721;573;49002;-87
2021/06/09 01:33:16;;;;;;;9.02;6.15;;;;;;;24.45;56.98;101019.34;143726;602;47004;-86
2021/06/09 01:35:43;;;;;;;9.82;5.37;;;;;;;24.43;56.52;101022.38;143726;567;46002;-86
2021/06/09 01:38:11;;;;;;;8.30;5.28;;;;;;;24.41;56.73;101021.84;143728;691;47010;-86
2021/06/09 01:40:40;;;;;;;8.35;5.28;;;;;;;24.37;56.32;101015.28;143724;649;47010;-88
2021/06/09 01:43:07;;;;;;;7.65;5.20;;;;;;;24.36;55.33;101019.13;143723;585;47011;-87
2021/06/09 01:45:36;;;;;;;7.72;5.10;;;;;;;24.35;56.17;101015.56;143724;582;47002;-88
2021/06/09 01:48:05;;;;;;;5.28;4.78;;;;;;;24.35;56.62;101015.56;143726;632;48004;-86
2021/06/09 01:50:32;;;;;;;10.02;5.65;;;;;;;24.40;56.87;101016.63;143718;622;49006;-87
2021/06/09 01:53:03;;;;;;;6.53;5.32;;;;;;;24.42;56.60;101020.72;143726;600;46002;-89
2021/06/09 01:55:34;;;;;;;5.75;4.97;;;;;;;24.44;56.54;101018.53;143726;675;46006;-88
2021/06/09 01:58:02;;;;;;;7.10;5.32;;;;;;;24.46;56.63;101019.03;143727;621;47004;-87
2021/06/09 02:00:36;;;;;;;8.25;5.40;;;;;;;24.47;56.83;101025.38;143720;654;48015;-88
2021/06/09 02:03:03;;;;;;;8.13;5.37;;;;;;;24.46;56.85;101010.78;143721;585;50012;-88
2021/06/09 02:05:34;;;;;;;6.95;5.40;;;;;;;24.48;56.92;101022.31;143725;592;46002;-86
2021/06/09 02:08:04;;;;;;;11.25;5.80;;;;;;;24.45;56.64;101017.41;143730;599;46002;-90
2021/06/09 02:10:32;;;;;;;9.40;5.87;;;;;;;24.44;56.99;101020.44;143725;700;47010;-88
2021/06/09 02:13:03;;;;;;;6.22;5.47;;;;;;;24.46;57.02;101020.97;143724;627;47004;-87
2021/06/09 02:15:30;;;;;;;7.78;5.30;;;;;;;24.46;56.64;101019.03;143725;748;46000;-87
2021/06/09 02:18:08;;;;;;;6.70;4.70;;;;;;;24.47;56.33;101017.13;143730;592;46004;-88
2021/06/09 02:20:37;;;;;;;7.22;4.93;;;;;;;24.48;56.23;101018.78;143724;694;50010;-87
2021/06/09 02:23:04;;;;;;;5.82;5.25;;;;;;;24.50;56.28;101020.09;143726;600;46004;-89
2021/06/09 02:25:31;;;;;;;6.05;4.90;;;;;;;24.48;56.44;101019.56;143725;605;45924;-88
2021/06/09 02:27:58;;;;;;;6.85;4.90;;;;;;;24.48;56.39;101014.09;143725;584;49011;-87
2021/06/09 02:30:25;;;;;;;7.32;5.28;;;;;;;24.48;56.98;101014.09;143722;578;48008;-89
2021/06/09 02:32:53;;;;;;;6.20;4.75;;;;;;;24.49;57.04;101020.41;143719;594;48014;-87
2021/06/09 02:35:20;;;;;;;7.15;5.50;;;;;;;24.50;56.82;101025.59;143727;672;45012;-86
2021/06/09 02:37:53;;;;;;;7.10;5.37;;;;;;;24.51;55.90;101023.69;143723;660;50013;-88
2021/06/09 02:40:22;;;;;;;9.45;6.20;;;;;;;24.49;56.08;101018.47;143726;605;46012;-87
2021/06/09 02:42:50;;;;;;;7.55;5.35;;;;;;;24.50;55.74;101019.31;143726;602;47002;-88
2021/06/09 02:45:20;;;;;;;8.82;5.68;;;;;;;24.50;55.83;101013.81;143728;567;45924;-87
2021/06/09 02:47:51;;;;;;;6.80;5.55;;;;;;;24.48;55.60;101018.78;143724;611;49016;-87
2021/06/09 02:50:21;;;;;;;6.62;5.28;;;;;;;24.46;56.17;101015.47;143725;589;47032;-86
2021/06/09 02:53:28;;;;;;;7.20;5.30;;;;;;;24.49;56.72;101020.41;143723;701;47006;-87
2021/06/09 02:56:34;;;;;;;10.00;5.37;;;;;;;24.48;56.09;101024.25;143726;612;46021;-88
2021/06/09 02:59:44;;;;;;;6.72;4.87;;;;;;;24.46;55.74;101026.47;143727;588;47002;-88
2021/06/09 03:02:33;;;;;;;8.18;5.18;;;;;;;24.43;56.55;101022.38;143721;609;48010;-87
2021/06/09 03:05:27;;;;;;;5.20;4.70;;;;;;;24.41;56.21;101027.31;143725;569;47002;-86
2021/06/09 03:08:20;;;;;;;8.13;5.20;;;;;;;24.43;56.23;101030.63;143725;573;46004;-87
2021/06/09 03:11:32;;;;;;;9.52;6.37;;;;;;;24.39;56.27;101029.53;143719;675;48004;-87
2021/06/09 03:15:09;;;;;;;8.35;5.20;;;;;;;24.41;56.13;101031.97;143726;596;47009;-87
2021/06/09 03:17:16;;;;;;;8.20;4.80;;;;;;;24.40;56.26;101030.34;143729;578;46006;-87
2021/06/09 03:20:20;;;;;;;5.68;5.00;;;;;;;24.42;56.44;101026.22;143727;588;45925;-88
2021/06/09 03:23:11;;;;;;;8.57;5.30;;;;;;;24.41;56.08;101024.59;143728;591;47006;-89
2021/06/09 03:25:58;;;;;;;5.53;4.95;;;;;;;24.42;55.45;101022.66;143726;689;46012;-87
2021/06/09 03:28:48;;;;;;;7.93;5.70;;;;;;;24.43;55.37;101025.12;143725;569;47002;-86
2021/06/09 03:31:23;;;;;;;6.45;4.70;;;;;;;24.44;55.24;101026.75;143727;665;46004;-87
2021/06/09 03:33:52;;;;;;;8.52;5.20;;;;;;;24.44;55.80;101026.75;143726;578;47004;-89
2021/06/09 03:36:26;;;;;;;5.45;4.95;;;;;;;24.45;56.18;101031.13;143727;588;47010;-87
2021/06/09 03:38:58;;;;;;;;;;;;;;;24.47;55.73;101022.63;143733;978;46002;-88
2021/06/09 03:41:40;;;;;;;7.00;5.47;;;;;;;24.51;55.82;101023.69;143732;573;46008;-87
2021/06/09 03:44:10;;;;;;;8.93;6.20;;;;;;;24.50;56.10;101030.28;143729;568;47004;-86
2021/06/09 03:46:42;;;;;;;10.73;5.43;;;;;;;24.48;56.26;101024.25;143725;726;47008;-87
2021/06/09 03:49:13;;;;;;;10.50;5.43;;;;;;;24.48;56.03;101032.50;143726;579;47004;-87
2021/06/09 03:51:41;;;;;;;7.25;4.68;;;;;;;24.48;55.71;101029.75;143724;572;48002;-88
2021/06/09 03:54:09;;;;;;;9.02;5.62;;;;;;;24.48;55.73;101035.25;143729;670;46008;-86
2021/06/09 03:56:39;;;;;;;8.00;5.90;;;;;;;24.48;55.64;101038.00;143726;578;45928;-88
2021/06/09 03:59:08;;;;;;;12.45;5.62;;;;;;;24.48;56.06;101029.75;143727;603;46002;-88
2021/06/09 04:01:39;;;;;;;9.52;5.68;;;;;;;24.51;55.59;101034.69;143728;579;46002;-86
2021/06/09 04:04:08;;;;;;;11.32;6.57;;;;;;;24.55;55.74;101032.97;143729;568;47019;-88
2021/06/09 04:06:39;;;;;;;10.68;7.35;;;;;;;24.56;56.34;101029.13;143724;626;47010;-88
2021/06/09 04:09:07;;;;;;;12.00;7.15;;;;;;;24.58;56.07;101039.84;143726;604;47002;-88
2021/06/09 04:11:36;;;;;;;10.50;7.90;;;;;;;24.59;56.59;101036.00;143725;630;48002;-86
2021/06/09 04:14:07;;;;;;;12.65;7.95;;;;;;;24.57;56.40;101041.75;143729;694;46002;-88
2021/06/09 04:16:37;;;;;;;9.57;7.20;;;;;;;24.55;56.58;101034.91;143727;580;47010;-87
2021/06/09 04:19:07;;;;;;;13.13;7.68;;;;;;;24.52;56.41;101041.81;143725;634;47002;-89
2021/06/09 04:21:34;;;;;;;10.00;7.22;;;;;;;24.54;57.04;101039.56;143726;686;47002;-87
2021/06/09 04:24:01;;;;;;;14.48;6.82;;;;;;;24.57;56.76;101044.50;143726;566;49002;-88
2021/06/09 04:26:29;;;;;;;9.40;8.43;;;;;;;24.61;55.76;101048.31;143726;583;47011;-88
2021/06/09 04:28:57;;;;;;;9.65;8.65;;;;;;;24.63;55.83;101048.03;143725;600;49006;-87
2021/06/09 04:31:25;;;;;;;12.05;7.87;;;;;;;24.64;56.48;101046.91;143728;577;45926;-87
2021/06/09 04:33:59;;;;;;;9.50;8.50;;;;;;;24.65;56.51;101038.41;143729;583;46006;-88
2021/06/09 04:36:26;;;;;;;12.00;7.95;;;;;;;24.63;56.24;101040.63;143728;676;46004;-89
2021/06/09 04:38:54;;;;;;;10.63;8.25;;;;;;;24.66;56.61;101047.47;143727;577;46002;-87
2021/06/09 04:41:21;;;;;;;9.07;7.28;;;;;;;24.68;56.29;101048.00;143726;614;46008;-87
2021/06/09 04:43:52;;;;;;;11.27;8.07;;;;;;;24.70;56.20;101042.22;143721;651;48009;-87
2021/06/09 04:46:22;;;;;;;11.88;7.53;;;;;;;24.74;56.67;101044.16;143723;659;47008;-88
2021/06/09 04:49:06;;;;;;;11.35;7.18;;;;;;;24.76;56.38;101047.44;143724;729;47005;-89
2021/06/09 04:51:36;;;;;;;10.48;7.25;;;;;;;24.80;56.31;101053.97;143728;625;45016;-89
2021/06/09 04:54:07;;;;;;;14.18;7.60;;;;;;;24.85;56.24;101058.62;143727;685;47004;-89
2021/06/09 04:56:38;;;;;;;15.02;7.68;;;;;;;24.89;56.34;101059.66;143724;611;47011;-91
2021/06/09 04:59:08;;;;;;;9.02;7.75;;;;;;;24.96;56.37;101068.41;143726;672;46002;-89
2021/06/09 05:01:41;;;;;;;11.77;7.35;;;;;;;25.00;56.65;101070.59;143724;576;47004;-91
2021/06/09 05:04:08;;;;;;;8.67;7.30;;;;;;;25.03;56.69;101070.81;143728;671;47006;-89
2021/06/09 05:06:36;;;;;;;11.52;7.60;;;;;;;25.08;56.08;101072.69;143728;595;46008;-92
2021/06/09 05:09:11;;;;;;;12.95;7.35;;;;;;;25.15;56.15;101075.94;143728;566;46004;-91
2021/06/09 05:12:13;;;;;;;10.10;7.50;;;;;;;25.23;56.50;101075.34;143726;637;47008;-89
2021/06/09 05:15:06;;;;;;;13.20;7.62;;;;;;;25.31;56.55;101086.78;143730;570;46004;-89
2021/06/09 05:18:01;;;;;;;15.55;7.95;;;;;;;25.36;56.65;101079.31;143719;606;48018;-91
2021/06/09 05:20:33;;;;;;;11.73;7.97;;;;;;;25.35;56.16;101087.87;143726;589;47002;-91
2021/06/09 05:23:10;;;;;;;11.68;8.07;;;;;;;25.39;55.77;101086.19;143727;609;45923;-87
2021/06/09 05:25:39;;;;;;;13.80;7.87;;;;;;;25.45;56.55;101092.47;143729;569;46002;-88
2021/06/09 05:28:07;;;;;;;9.85;8.02;;;;;;;25.49;56.54;101090.78;143726;638;47008;-89
2021/06/09 05:30:36;;;;;;;17.17;8.85;;;;;;;25.53;55.83;101091.81;143725;611;47004;-88
2021/06/09 05:33:04;;;;;;;13.40;8.90;;;;;;;25.50;56.27;101092.44;143724;648;45926;-87
2021/06/09 05:35:32;;;;;;;12.00;8.02;;;;;;;25.52;55.51;101092.94;143729;575;46007;-87
2021/06/09 05:38:00;;;;;;;11.23;8.15;;;;;;;25.56;56.10;101085.75;143726;574;45928;-88
2021/06/09 05:40:27;;;;;;;12.13;7.68;;;;;;;25.61;55.96;101088.44;143724;585;47002;-89
2021/06/09 05:42:54;;;;;;;14.35;8.43;;;;;;;25.65;56.05;101092.25;143723;575;48004;-89
2021/06/09 05:45:33;;;;;;;12.65;8.68;;;;;;;25.69;55.18;101093.31;143727;577;48004;-88
2021/06/09 05:48:00;;;;;;;10.45;9.38;;;;;;;25.72;55.28;101098.22;143723;573;47010;-87
2021/06/09 05:50:30;;;;;;;16.27;8.98;;;;;;;25.77;55.05;101094.59;143724;567;48004;-88
2021/06/09 05:52:59;;;;;;;11.85;8.65;;;;;;;25.82;54.88;101102.78;143727;604;45927;-85
2021/06/09 05:55:30;;;;;;;15.32;9.43;;;;;;;25.85;54.47;101107.72;143731;597;46002;-89
2021/06/09 05:58:05;;;;;;;14.98;9.55;;;;;;;25.86;54.49;101105.78;143723;660;48010;-88
2021/06/09 06:00:33;;;;;;;10.88;9.10;;;;;;;25.86;54.63;101106.59;143728;589;46004;-87
2021/06/09 06:03:05;;;;;;;12.63;8.45;;;;;;;25.86;54.54;101112.09;143724;655;48002;-89
2021/06/09 06:05:35;;;;;;;12.63;9.82;;;;;;;25.92;54.20;101106.56;143730;574;46002;-88
2021/06/09 06:08:06;;;;;;;12.82;10.02;;;;;;;25.95;54.17;101116.94;143727;584;47012;-88
2021/06/09 06:10:33;;;;;;;15.77;9.00;;;;;;;25.98;54.01;101106.19;143724;684;48002;-89
2021/06/09 06:13:00;;;;;;;14.27;10.15;;;;;;;26.05;54.41;101111.34;143727;621;46008;-88
2021/06/09 06:15:28;;;;;;;10.35;9.20;;;;;;;26.10;53.83;101102.19;143728;646;47006;-89
2021/06/09 06:17:54;;;;;;;14.38;9.57;;;;;;;26.16;53.57;101123.09;143721;620;49002;-87
2021/06/09 06:20:23;;;;;;;17.12;10.25;;;;;;;26.21;53.24;101111.97;143730;586;46002;-88
2021/06/09 06:22:52;;;;;;;13.35;9.18;;;;;;;26.26;53.83;101105.63;143726;676;45924;-88
2021/06/09 06:25:23;;;;;;;15.55;9.20;;;;;;;26.31;53.15;101111.03;143728;608;47006;-91
2021/06/09 06:27:53;;;;;;;13.80;9.45;;;;;;;26.39;52.57;101106.78;143725;627;47008;-87
2021/06/09 06:30:23;;;;;;;13.40;8.13;;;;;;;26.47;52.17;101109.72;143729;568;46002;-88
2021/06/09 06:32:57;;;;;;;17.58;11.50;;;;;;;26.57;52.10;101110.69;143726;573;45923;-91
2021/06/09 06:35:28;;;;;;;16.77;8.55;;;;;;;26.50;51.50;101105.56;143730;623;46008;-82
2021/06/09 06:37:55;;;;;;;12.52;9.10;;;;;;;26.52;52.26;101105.25;143724;595;48008;-85
2021/06/09 06:40:25;;;;;;;11.77;8.40;;;;;;;26.35;51.56;101103.81;143722;600;47004;-83
2021/06/09 06:42:54;;;;;;;16.95;8.45;;;;;;;26.33;51.85;101109.62;143728;592;46004;-84
2021/06/09 06:45:25;;;;;;;10.90;7.97;;;;;;;26.32;51.65;101098.91;143730;567;46004;-85
2021/06/09 06:47:54;;;;;;;10.38;8.13;;;;;;;26.35;51.89;101097.50;143723;567;47009;-84
2021/06/09 06:50:22;;;;;;;14.50;8.43;;;;;;;26.33;52.52;101098.63;143730;641;46008;-85
2021/06/09 06:52:51;;;;;;;11.30;8.60;;;;;;;26.17;52.03;101089.72;143728;572;45923;-83
2021/06/09 06:55:19;;;;;;;10.18;7.82;;;;;;;26.29;52.37;101094.00;143732;577;46008;-86
2021/06/09 06:57:48;;;;;;;11.48;8.55;;;;;;;26.40;52.17;101090.00;143728;630;47008;-84
2021/06/09 07:00:17;;;;;;;11.63;8.40;;;;;;;26.46;52.29;101091.56;143726;573;47004;-85
2021/06/09 07:02:51;;;;;;;12.93;8.38;;;;;;;26.45;52.73;101086.34;143727;624;45016;-84
2021/06/09 07:05:20;;;;;;;15.73;9.32;;;;;;;26.51;52.13;101081.56;143730;573;46007;-85
2021/06/09 07:07:47;;;;;;;9.60;8.30;;;;;;;26.49;51.69;101077.16;143723;629;49008;-85
2021/06/09 07:10:17;;;;;;;12.85;7.62;;;;;;;26.52;51.13;101074.94;143729;579;46010;-84
2021/06/09 07:12:45;;;;;;;10.68;6.80;;;;;;;26.56;50.78;101074.06;143727;592;46002;-83
2021/06/09 07:15:20;;;;;;;8.70;7.90;;;;;;;26.48;51.24;101069.22;143729;648;45010;-84
2021/06/09 07:17:57;;;;;;;11.98;8.48;;;;;;;26.53;51.76;101082.09;143722;579;49009;-84
2021/06/09 07:20:25;;;;;;;14.75;8.48;;;;;;;26.43;52.39;101072.88;143729;666;46004;-85
2021/06/09 07:22:54;;;;;;;10.10;7.40;;;;;;;26.37;51.98;101070.50;143725;572;46002;-84
2021/06/09 07:25:23;;;;;;;11.12;7.72;;;;;;;26.38;53.35;101067.44;143729;596;48004;-82
2021/06/09 07:27:57;;;;;;;13.10;7.62;;;;;;;26.43;52.45;101072.03;143726;598;47008;-84
2021/06/09 07:30:28;;;;;;;10.52;7.47;;;;;;;26.49;52.03;101077.16;143728;578;47002;-83
2021/06/09 07:32:55;;;;;;;20.92;9.05;;;;;;;26.56;52.05;101071.31;143729;647;45924;-84
2021/06/09 07:35:22;;;;;;;13.32;8.75;;;;;;;26.63;51.79;101074.50;143730;575;47002;-84
2021/06/09 07:37:59;;;;;;;13.95;6.93;;;;;;;26.76;50.91;101072.09;143727;633;47010;-86
2021/06/09 07:40:37;;;;;;;14.40;8.52;;;;;;;26.84;50.69;101073.38;143727;605;47002;-83
2021/06/09 07:43:11;;;;;;;7.40;6.55;;;;;;;26.86;51.26;101071.97;143730;586;46002;-85
2021/06/09 07:45:39;;;;;;;8.02;7.10;;;;;;;26.83;50.67;101074.53;143729;585;47004;-85
2021/06/09 07:48:07;;;;;;;8.70;6.60;;;;;;;26.83;51.46;101080.84;143718;589;51003;-84
2021/06/09 07:50:44;;;;;;;12.13;7.40;;;;;;;26.78;51.57;101076.19;143728;567;47002;-86
2021/06/09 07:53:13;;;;;;;9.65;7.80;;;;;;;26.81;51.79;101074.00;143730;650;45010;-87
2021/06/09 07:55:45;;;;;;;10.32;7.32;;;;;;;26.74;51.22;101069.66;143730;624;47004;-86
2021/06/09 07:58:14;;;;;;;13.20;6.82;;;;;;;26.74;51.89;101077.09;143718;586;49011;-87
2021/06/09 08:00:42;;;;;;;11.98;7.22;;;;;;;26.75;52.02;101071.28;143729;586;47002;-87
2021/06/09 08:03:10;;;;;;;12.93;8.23;;;;;;;26.76;51.77;101072.94;143730;615;45011;-89
2021/06/09 08:05:41;;;;;;;15.25;7.35;;;;;;;26.76;51.88;101064.66;143731;589;47004;-85
2021/06/09 08:08:12;;;;;;;10.77;7.97;;;;;;;26.71;51.17;101074.94;143728;590;47925;-86
2021/06/09 08:10:43;;;;;;;8.70;7.43;;;;;;;26.69;51.56;101074.44;143727;593;47002;-88
2021/06/09 08:13:11;;;;;;;10.25;7.10;;;;;;;26.82;50.90;101072.88;143730;581;45010;-89
2021/06/09 08:15:39;;;;;;;10.07;7.03;;;;;;;26.78;51.17;101080.87;143727;659;47006;-87
2021/06/09 08:18:08;;;;;;;7.62;6.70;;;;;;;26.82;50.71;101086.66;143725;591;48010;-87
2021/06/09 08:20:41;;;;;;;12.60;7.40;;;;;;;26.89;50.64;101092.59;143726;628;47004;-88
2021/06/09 08:23:09;;;;;;;10.15;6.80;;;;;;;26.90;50.58;101083.19;143726;606;47002;-86
2021/06/09 08:25:36;;;;;;;8.90;6.70;;;;;;;26.95;49.59;101088.66;143729;630;47002;-88
2021/06/09 08:28:03;;;;;;;10.35;6.82;;;;;;;26.88;50.42;101097.28;143726;590;47008;-86
2021/06/09 08:30:30;;;;;;;10.27;7.50;;;;;;;26.89;52.19;101093.44;143728;610;47004;-86
2021/06/09 08:32:57;;;;;;;11.68;7.32;;;;;;;26.85;50.67;101095.13;143727;602;48004;-87
2021/06/09 08:35:26;;;;;;;8.63;7.75;;;;;;;26.75;50.34;101101.59;143731;586;47002;-86
2021/06/09 08:37:53;;;;;;;8.23;7.37;;;;;;;26.60;51.43;101094.37;143727;591;47004;-88
2021/06/09 08:40:20;;;;;;;7.00;6.30;;;;;;;26.45;51.84;101095.44;143727;589;47002;-85
2021/06/09 08:42:48;;;;;;;12.55;6.62;;;;;;;26.17;53.29;101095.25;143729;572;46004;-87
2021/06/09 08:45:16;;;;;;;11.43;6.35;;;;;;;26.07;52.58;101102.78;143732;640;46004;-86
2021/06/09 08:47:43;;;;;;;12.52;6.37;;;;;;;25.99;52.85;101104.25;143724;573;48002;-87
2021/06/09 08:50:12;;;;;;;9.15;6.55;;;;;;;25.95;53.52;101105.94;143727;597;47004;-87
2021/06/09 08:52:48;;;;;;;10.52;7.35;;;;;;;26.03;54.48;101105.31;143724;581;48992;-87
2021/06/09 08:55:16;;;;;;;7.43;6.35;;;;;;;25.95;54.50;101112.28;143730;568;47004;-85
2021/06/09 08:57:44;;;;;;;7.68;6.70;;;;;;;25.95;54.34;101109.53;143729;595;45926;-91
2021/06/09 09:00:13;;;;;;;7.12;5.82;;;;;;;25.89;53.28;101110.69;143729;607;47004;-85
2021/06/09 09:02:40;;;;;;;9.60;6.30;;;;;;;25.92;54.70;101112.06;143729;584;46004;-87
2021/06/09 09:05:09;;;;;;;8.80;6.18;;;;;;;25.95;52.55;101115.03;143732;591;46002;-88
2021/06/09 09:07:37;;;;;;;10.57;5.43;;;;;;;25.98;50.15;101111.69;143723;605;48008;-87
2021/06/09 09:10:07;;;;;;;5.65;5.07;;;;;;;26.11;49.27;101118.47;143730;640;46004;-90
2021/06/09 09:12:36;;;;;;;11.02;5.95;;;;;;;25.99;49.66;101115.25;143726;601;47000;-89
2021/06/09 09:15:06;;;;;;;8.63;7.72;;;;;;;25.88;51.36;101126.41;143732;592;46002;-88
2021/06/09 09:17:48;;;;;;;7.12;5.45;;;;;;;25.85;49.58;101126.97;143722;575;49010;-88
2021/06/09 09:20:15;;;;;;;6.82;5.80;;;;;;;25.91;50.00;101130.47;143727;594;47002;-86
2021/06/09 09:22:42;;;;;;;7.18;6.32;;;;;;;25.97;50.53;101128.50;143729;622;46004;-87
2021/06/09 09:25:14;;;;;;;9.27;5.80;;;;;;;25.92;51.35;101126.62;143733;568;46009;-86
2021/06/09 09:27:50;;;;;;;15.75;13.90;;;;;;;25.97;52.62;101123.81;143709;632;53004;-88
2021/06/09 09:30:20;;;;;;;7.50;6.25;;;;;;;25.98;52.75;101125.47;143725;572;50010;-89
2021/06/09 09:33:20;;;;;;;8.43;6.37;;;;;;;25.91;53.45;101124.19;143728;606;45924;-88
2021/06/09 09:35:49;;;;;;;15.45;6.35;;;;;;;25.91;53.53;101124.97;143731;633;46021;-88
2021/06/09 09:38:28;;;;;;;6.55;5.95;;;;;;;25.88;53.95;101122.81;143730;617;46008;-89
2021/06/09 09:41:12;;;;;;;8.70;6.50;;;;;;;25.89;54.45;101116.19;143727;577;47004;-88
2021/06/09 09:43:44;;;;;;;8.38;6.70;;;;;;;25.75;54.20;101118.84;143730;580;45928;-90
2021/06/09 09:46:17;;;;;;;8.63;6.12;;;;;;;25.73;53.57;101116.38;143729;595;47002;-88
2021/06/09 09:49:14;;;;;;;7.85;6.07;;;;;;;25.77;53.00;101124.03;143728;672;47004;-89
2021/06/09 09:52:01;;;;;;;7.95;6.53;;;;;;;25.78;53.74;101114.69;143723;595;47004;-88
2021/06/09 09:54:36;;;;;;;9.68;6.28;;;;;;;25.81;53.51;101119.59;143731;620;45011;-90
2021/06/09 09:57:06;;;;;;;7.70;6.78;;;;;;;25.78;54.04;101111.94;143731;567;47004;-90
2021/06/09 09:59:34;;;;;;;7.35;6.57;;;;;;;25.69;54.59;101109.81;143726;588;46010;-89
2021/06/09 10:02:03;;;;;;;8.60;6.68;;;;;;;25.76;54.35;101112.22;143720;589;47008;-89
2021/06/09 10:04:34;;;;;;;6.70;6.03;;;;;;;25.91;53.64;101107.66;143728;568;46004;-90
2021/06/09 10:07:06;;;;;;;8.40;6.32;;;;;;;25.98;53.64;101105.38;143732;648;46006;-90
2021/06/09 10:09:39;;;;;;;11.07;7.43;;;;;;;25.97;54.63;101106.47;143729;568;47008;-90
2021/06/09 10:12:09;;;;;;;8.55;6.75;;;;;;;25.86;53.24;101103.84;143726;587;47004;-88
2021/06/09 10:14:47;;;;;;;8.35;6.70;;;;;;;26.00;54.19;101108.66;143729;585;45928;-87
2021/06/09 10:17:27;;;;;;;9.25;7.57;;;;;;;26.06;54.82;101112.97;143727;635;49003;-89
2021/06/09 10:19:59;;;;;;;10.63;6.45;;;;;;;26.06;52.86;101107.47;143725;594;47002;-87
2021/06/09 10:22:31;;;;;;;13.73;7.50;;;;;;;26.16;53.32;101104.63;143720;566;49013;-87
2021/06/09 10:25:10;;;;;;;10.60;6.75;;;;;;;26.30;52.85;101103.88;143729;567;45928;-87
2021/06/09 10:27:49;;;;;;;11.48;8.50;;;;;;;26.48;52.32;101083.00;143729;603;47002;-89
2021/06/09 10:30:29;;;;;;;10.88;7.00;;;;;;;26.71;51.29;101080.47;143730;589;46008;-88
2021/06/09 10:33:01;;;;;;;8.38;7.57;;;;;;;26.91;50.88;101079.34;143723;586;47004;-89
2021/06/09 10:35:38;;;;;;;15.90;8.25;;;;;;;27.17;50.29;101081.66;143729;613;45927;-88
2021/06/09 10:38:05;;;;;;;7.37;6.18;;;;;;;27.32;49.12;101077.78;143731;579;46006;-88
2021/06/09 10:40:34;;;;;;;9.50;6.68;;;;;;;27.21;49.49;101066.12;143727;594;47010;-87
2021/06/09 10:43:05;;;;;;;9.07;6.95;;;;;;;27.24;49.46;101071.03;143730;592;47004;-89
2021/06/09 10:45:32;;;;;;;9.05;6.87;;;;;;;27.12;50.90;101066.00;143731;568;45926;-89
2021/06/09 10:48:04;;;;;;;9.52;7.62;;;;;;;27.11;50.46;101060.81;143732;602;46004;-87
2021/06/09 10:50:31;;;;;;;7.78;6.82;;;;;;;27.23;50.43;101059.22;143728;598;46012;-89
2021/06/09 10:52:59;;;;;;;9.80;7.35;;;;;;;27.33;49.36;101060.13;143721;621;48006;-87
2021/06/09 10:55:26;;;;;;;7.95;6.87;;;;;;;27.38;48.90;101062.81;143730;610;46004;-88
2021/06/09 10:57:53;;;;;;;11.07;6.80;;;;;;;27.32;48.66;101055.72;143724;583;50008;-89
2021/06/09 11:00:21;;;;;;;8.02;6.60;;;;;;;27.19;47.91;101057.34;143730;578;46008;-88
2021/06/09 11:02:50;;;;;;;7.37;5.65;;;;;;;27.27;47.55;101055.84;143726;592;47004;-89
2021/06/09 11:05:18;;;;;;;7.90;5.75;;;;;;;27.32;47.91;101056.56;143726;610;46002;-89
2021/06/09 11:07:46;;;;;;;9.52;5.80;;;;;;;27.44;47.13;101060.75;143696;650;49006;-85
2021/06/09 11:10:40;;;;;;;7.28;5.80;;;;;;;27.43;46.76;101062.72;143729;591;46011;-92
2021/06/09 11:13:09;;;;;;;7.40;5.93;;;;;;;27.34;46.13;101057.09;143728;582;47017;-91
2021/06/09 11:15:36;;;;;;;6.22;5.62;;;;;;;27.43;46.39;101059.12;143730;588;45016;-89
2021/06/09 11:18:16;;;;;;;7.55;5.93;;;;;;;27.51;46.61;101056.50;143728;634;47006;-92
2021/06/09 11:20:47;;;;;;;7.47;5.53;;;;;;;27.71;45.90;101051.72;143730;573;46018;-89
2021/06/09 11:23:35;;;;;;;8.35;5.65;;;;;;;28.03;45.40;101062.94;143723;586;51002;-90
2021/06/09 11:26:04;;;;;;;6.57;5.15;;;;;;;28.07;45.33;101055.62;143723;593;48006;-88
2021/06/09 11:28:36;;;;;;;8.07;5.90;;;;;;;28.08;45.03;101055.34;143730;604;45010;-90
2021/06/09 11:31:06;;;;;;;10.90;5.57;;;;;;;28.07;47.29;101050.94;143723;586;50011;-91
2021/06/09 11:33:39;;;;;;;8.95;5.95;;;;;;;28.10;47.10;101053.13;143726;602;47004;-89
2021/06/09 11:36:12;;;;;;;7.07;5.25;;;;;;;28.13;46.92;101049.75;143727;614;47002;-91
2021/06/09 11:38:45;;;;;;;8.27;6.00;;;;;;;28.04;46.89;101059.84;143732;570;46015;-90
2021/06/09 11:41:17;;;;;;;11.15;6.32;;;;;;;27.90;46.14;101061.81;143709;622;50008;-88
2021/06/09 11:43:50;;;;;;;12.80;5.87;;;;;;;27.87;45.98;101068.78;143729;574;47002;-91